createdAt,value
2023-10-24T00:00:37.620Z,2.03
2023-10-24T00:03:05.283Z,0.85
2023-10-24T00:05:33.162Z,0.98
2023-10-24T00:08:00.734Z,6.40
2023-10-24T00:10:28.465Z,3.63
2023-10-24T00:12:55.978Z,2.10
2023-10-24T00:15:23.722Z,4.82
2023-10-24T00:17:51.433Z,2.80
2023-10-24T00:20:19.338Z,1.42
2023-10-24T00:22:47.093Z,2.97
2023-10-24T00:25:15.623Z,3.63
2023-10-24T00:27:43.480Z,5.18
2023-10-24T00:30:12.152Z,2.03
2023-10-24T00:35:35.594Z,1.30
2023-10-24T00:38:04.039Z,1.20
2023-10-24T00:40:35.131Z,0.88
2023-10-24T00:43:06.209Z,2.85
2023-10-24T00:45:36.721Z,1.77
2023-10-24T00:48:05.702Z,0.80
2023-10-24T00:50:34.219Z,2.15
2023-10-24T00:53:03.096Z,1.23
2023-10-24T00:55:32.114Z,1.25
2023-10-24T00:58:01.566Z,0.68
2023-10-24T01:00:30.141Z,6.60
2023-10-24T01:02:58.724Z,0.70
2023-10-24T01:05:26.564Z,1.77
2023-10-24T01:07:54.233Z,0.73
2023-10-24T01:10:21.912Z,1.25
2023-10-24T01:12:49.584Z,2.90
2023-10-24T01:15:17.525Z,1.23
2023-10-24T01:17:52.797Z,1.45
2023-10-24T01:20:20.809Z,1.13
2023-10-24T01:22:48.915Z,1.05
2023-10-24T01:25:17.106Z,0.60
2023-10-24T01:27:45.880Z,1.55
2023-10-24T01:30:14.356Z,2.13
2023-10-24T01:32:42.545Z,0.95
2023-10-24T01:35:11.946Z,1.33
2023-10-24T01:37:39.542Z,1.15
2023-10-24T01:40:08.300Z,1.95
2023-10-24T01:42:35.943Z,1.45
2023-10-24T01:45:04.184Z,0.98
2023-10-24T01:47:32.022Z,2.42
2023-10-24T01:49:59.805Z,1.60
2023-10-24T01:52:27.538Z,2.42
2023-10-24T01:54:55.449Z,4.43
2023-10-24T01:57:23.145Z,0.90
2023-10-24T01:59:50.883Z,0.95
2023-10-24T02:02:18.764Z,2.65
2023-10-24T02:04:46.518Z,2.83
2023-10-24T02:07:14.183Z,3.65
2023-10-24T02:09:42.063Z,2.88
2023-10-24T02:12:09.677Z,2.13
2023-10-24T02:14:39.262Z,0.93
2023-10-24T02:17:07.086Z,1.20
2023-10-24T02:19:34.979Z,1.05
2023-10-24T02:22:02.545Z,1.33
2023-10-24T02:24:30.321Z,1.40
2023-10-24T02:26:57.964Z,1.65
2023-10-24T02:29:25.766Z,2.47
2023-10-24T02:31:53.544Z,2.05
2023-10-24T02:34:22.831Z,1.20
2023-10-24T02:36:52.941Z,3.92
2023-10-24T02:39:22.243Z,3.08
2023-10-24T02:41:49.972Z,1.23
2023-10-24T02:44:17.682Z,3.72
2023-10-24T02:46:45.430Z,3.17
2023-10-24T02:49:13.301Z,1.08
2023-10-24T02:51:40.910Z,3.03
2023-10-24T02:54:09.162Z,1.23
2023-10-24T02:56:36.845Z,2.15
2023-10-24T02:59:07.512Z,1.00
2023-10-24T03:01:35.441Z,1.45
2023-10-24T03:04:03.203Z,3.00
2023-10-24T03:06:30.877Z,2.40
2023-10-24T03:08:58.643Z,3.58
2023-10-24T03:11:26.976Z,1.88
2023-10-24T03:13:54.862Z,1.55
2023-10-24T03:16:23.829Z,2.97
2023-10-24T03:18:52.314Z,1.17
2023-10-24T03:21:20.795Z,1.27
2023-10-24T03:23:48.428Z,2.10
2023-10-24T03:26:16.267Z,1.73
2023-10-24T03:28:43.939Z,3.10
2023-10-24T03:31:12.192Z,1.80
2023-10-24T03:33:39.855Z,2.90
2023-10-24T03:36:15.130Z,1.20
2023-10-24T03:38:42.980Z,1.40
2023-10-24T03:41:10.692Z,3.40
2023-10-24T03:43:40.819Z,3.08
2023-10-24T03:46:09.202Z,2.72
2023-10-24T03:48:37.036Z,2.25
2023-10-24T03:51:04.785Z,6.60
2023-10-24T03:53:32.837Z,2.55
2023-10-24T03:56:01.151Z,2.10
2023-10-24T03:58:29.135Z,2.33
2023-10-24T04:00:56.849Z,1.25
2023-10-24T04:03:24.713Z,3.80
2023-10-24T04:05:52.446Z,4.18
2023-10-24T04:08:20.251Z,2.00
2023-10-24T04:10:47.833Z,2.80
2023-10-24T04:13:15.688Z,2.78
2023-10-24T04:15:43.285Z,3.70
2023-10-24T04:18:11.871Z,3.28
2023-10-24T04:20:43.718Z,3.40
2023-10-24T04:23:16.728Z,3.20
2023-10-24T04:25:44.667Z,3.95
2023-10-24T04:28:13.330Z,4.60
2023-10-24T04:30:41.937Z,1.88
2023-10-24T04:33:10.487Z,2.85
2023-10-24T04:35:48.998Z,2.63
2023-10-24T04:38:17.059Z,2.45
2023-10-24T04:40:45.020Z,2.00
2023-10-24T04:43:13.074Z,4.95
2023-10-24T04:45:40.859Z,7.25
2023-10-24T04:48:08.769Z,3.53
2023-10-24T04:50:40.756Z,2.85
2023-10-24T04:53:08.691Z,5.18
2023-10-24T04:55:37.117Z,2.67
2023-10-24T04:58:05.471Z,2.78
2023-10-24T05:00:33.244Z,6.53
2023-10-24T05:03:00.992Z,1.55
2023-10-24T05:05:29.163Z,3.10
2023-10-24T05:07:56.752Z,3.15
2023-10-24T05:10:24.472Z,2.95
2023-10-24T05:12:52.482Z,2.67
2023-10-24T05:15:20.240Z,2.53
2023-10-24T05:17:47.891Z,8.70
2023-10-24T05:20:18.804Z,5.60
2023-10-24T05:22:46.435Z,5.30
2023-10-24T05:25:14.101Z,4.15
2023-10-24T05:27:41.795Z,2.22
2023-10-24T05:30:11.668Z,18.38
2023-10-24T05:32:39.392Z,5.28
2023-10-24T05:35:07.390Z,6.15
2023-10-24T05:37:35.064Z,3.70
2023-10-24T05:40:02.717Z,4.47
2023-10-24T05:42:30.425Z,2.25
2023-10-24T05:44:58.045Z,2.70
2023-10-24T05:47:25.872Z,3.42
2023-10-24T05:49:53.673Z,2.35
2023-10-24T05:52:21.396Z,3.45
2023-10-24T05:54:49.124Z,7.75
2023-10-24T05:57:16.820Z,3.15
2023-10-24T05:59:44.458Z,3.97
2023-10-24T06:02:12.264Z,6.22
2023-10-24T06:04:41.552Z,4.70
2023-10-24T06:07:09.627Z,5.32
2023-10-24T06:09:37.297Z,2.50
2023-10-24T06:12:05.213Z,5.13
2023-10-24T06:14:34.780Z,2.85
2023-10-24T06:17:02.421Z,5.13
2023-10-24T06:19:31.418Z,5.38
2023-10-24T06:21:59.287Z,2.78
2023-10-24T06:24:27.049Z,4.35
2023-10-24T06:26:54.804Z,2.65
2023-10-24T06:29:22.437Z,2.33
2023-10-24T06:31:50.178Z,2.55
2023-10-24T06:34:17.875Z,4.57
2023-10-24T06:36:45.482Z,6.00
2023-10-24T06:39:13.767Z,4.10
2023-10-24T06:41:41.388Z,3.75
2023-10-24T06:44:09.106Z,2.53
2023-10-24T06:46:36.698Z,2.58
2023-10-24T06:49:04.340Z,3.33
2023-10-24T06:51:32.268Z,3.28
2023-10-24T06:54:00.067Z,4.05
2023-10-24T06:56:27.709Z,3.17
2023-10-24T06:58:56.660Z,3.67
2023-10-24T07:01:26.154Z,3.97
2023-10-24T07:03:56.369Z,4.43
2023-10-24T07:06:23.988Z,3.50
2023-10-24T07:08:55.248Z,4.72
2023-10-24T07:11:23.665Z,4.43
2023-10-24T07:13:51.886Z,5.03
2023-10-24T07:16:19.881Z,3.50
2023-10-24T07:18:47.562Z,4.00
2023-10-24T07:21:16.868Z,6.65
2023-10-24T07:23:44.503Z,5.97
2023-10-24T07:26:12.943Z,3.90
2023-10-24T07:28:40.915Z,4.93
2023-10-24T07:31:08.933Z,6.38
2023-10-24T07:33:36.534Z,4.10
2023-10-24T07:36:08.545Z,4.18
2023-10-24T07:38:36.529Z,4.10
2023-10-24T07:41:05.161Z,2.95
2023-10-24T07:43:33.445Z,5.20
2023-10-24T07:46:01.123Z,4.95
2023-10-24T07:48:28.869Z,4.40
2023-10-24T07:50:58.262Z,4.28
2023-10-24T07:53:27.646Z,5.18
2023-10-24T07:55:55.455Z,4.00
2023-10-24T07:58:23.379Z,4.25
2023-10-24T08:00:51.162Z,3.85
2023-10-24T08:03:19.779Z,5.30
2023-10-24T08:05:47.631Z,3.72
2023-10-24T08:08:15.361Z,4.30
2023-10-24T08:10:43.116Z,3.97
2023-10-24T08:13:10.964Z,5.50
2023-10-24T08:15:40.511Z,4.72
2023-10-24T08:18:08.657Z,5.07
2023-10-24T08:20:36.320Z,4.25
2023-10-24T08:23:04.258Z,3.75
2023-10-24T08:25:32.932Z,3.50
2023-10-24T08:28:00.838Z,6.25
2023-10-24T08:30:30.398Z,4.72
2023-10-24T08:32:58.237Z,6.22
2023-10-24T08:35:26.276Z,5.97
2023-10-24T08:37:54.274Z,4.88
2023-10-24T08:40:22.705Z,6.07
2023-10-24T08:42:51.139Z,5.70
2023-10-24T08:45:20.471Z,5.82
2023-10-24T08:47:51.441Z,5.32
2023-10-24T08:50:20.104Z,5.25
2023-10-24T08:52:47.943Z,5.25
2023-10-24T08:55:15.882Z,3.95
2023-10-24T08:57:44.345Z,7.43
2023-10-24T09:00:15.143Z,4.00
2023-10-24T09:02:43.890Z,5.85
2023-10-24T09:05:12.690Z,5.22
2023-10-24T09:07:40.789Z,6.00
2023-10-24T09:10:09.360Z,4.30
2023-10-24T09:12:40.904Z,4.55
2023-10-24T09:15:13.348Z,4.00
2023-10-24T09:17:42.279Z,8.27
2023-10-24T09:20:10.661Z,4.38
2023-10-24T09:22:42.977Z,5.57
2023-10-24T09:25:10.880Z,6.15
2023-10-24T09:27:38.619Z,4.50
2023-10-24T09:30:13.789Z,4.22
2023-10-24T09:32:43.288Z,4.97
2023-10-24T09:35:11.505Z,5.13
2023-10-24T09:37:47.394Z,3.97
2023-10-24T09:40:15.498Z,5.22
2023-10-24T09:42:44.681Z,3.35
2023-10-24T09:45:13.657Z,4.68
2023-10-24T09:47:44.546Z,5.10
2023-10-24T09:50:15.485Z,4.65
2023-10-24T09:52:44.718Z,4.65
2023-10-24T09:55:15.908Z,3.92
2023-10-24T09:57:46.128Z,5.57
2023-10-24T10:00:16.438Z,4.97
2023-10-24T10:02:46.674Z,4.50
2023-10-24T10:05:16.182Z,6.22
2023-10-24T10:07:49.181Z,4.15
2023-10-24T10:10:18.211Z,4.70
2023-10-24T10:12:46.843Z,5.70
2023-10-24T10:15:40.024Z,8.30
2023-10-24T10:18:19.918Z,6.65
2023-10-24T10:21:05.852Z,5.97
2023-10-24T10:23:49.022Z,6.85
2023-10-24T10:26:32.061Z,5.75
2023-10-24T10:29:02.958Z,6.80
2023-10-24T10:32:37.350Z,8.95
2023-10-24T10:34:18.639Z,7.70
2023-10-24T10:36:56.060Z,9.00
2023-10-24T10:39:23.899Z,10.43
2023-10-24T10:41:51.484Z,10.25
2023-10-24T10:44:42.658Z,8.05
2023-10-24T10:47:17.079Z,8.23
2023-10-24T10:50:00.406Z,9.30
2023-10-24T10:52:51.216Z,6.93
2023-10-24T10:55:33.619Z,7.95
2023-10-24T10:58:25.220Z,9.23
2023-10-24T11:00:58.783Z,6.10
2023-10-24T11:03:35.563Z,5.15
2023-10-24T11:06:15.918Z,6.40
2023-10-24T11:08:49.884Z,5.32
2023-10-24T11:11:21.641Z,5.30
2023-10-24T11:13:49.999Z,6.47
2023-10-24T11:16:34.434Z,4.63
2023-10-24T11:19:07.203Z,4.65
2023-10-24T11:21:35.180Z,5.53
2023-10-24T11:24:02.988Z,6.70
2023-10-24T11:26:30.883Z,5.20
2023-10-24T11:28:58.697Z,3.90
2023-10-24T11:31:28.860Z,6.57
2023-10-24T11:33:58.551Z,7.03
2023-10-24T11:36:27.353Z,6.00
2023-10-24T11:38:55.122Z,4.72
2023-10-24T11:41:22.778Z,7.68
2023-10-24T11:43:52.705Z,5.43
2023-10-24T11:46:20.282Z,5.80
2023-10-24T11:48:48.965Z,5.78
2023-10-24T11:51:17.036Z,7.13
2023-10-24T11:53:51.644Z,5.20
2023-10-24T11:56:19.517Z,6.85
2023-10-24T11:58:47.148Z,6.28
2023-10-24T12:01:15.722Z,5.63
2023-10-24T12:03:54.388Z,6.30
2023-10-24T12:06:24.568Z,4.88
2023-10-24T12:08:52.910Z,5.18
2023-10-24T12:11:22.154Z,6.18
2023-10-24T12:14:00.785Z,4.68
2023-10-24T12:16:51.687Z,5.72
2023-10-24T12:19:25.862Z,5.65
2023-10-24T12:21:54.498Z,4.40
2023-10-24T12:24:23.208Z,6.10
2023-10-24T12:27:02.099Z,4.68
2023-10-24T12:29:29.788Z,4.70
2023-10-24T12:31:57.613Z,7.15
2023-10-24T12:34:26.411Z,5.15
2023-10-24T12:36:56.241Z,6.07
2023-10-24T12:39:24.142Z,4.65
2023-10-24T12:41:51.780Z,3.83
2023-10-24T12:44:19.530Z,5.22
2023-10-24T12:46:47.216Z,4.80
2023-10-24T12:49:16.800Z,4.05
2023-10-24T12:51:44.900Z,3.80
2023-10-24T12:54:12.777Z,6.35
2023-10-24T12:56:40.418Z,4.50
2023-10-24T12:59:08.251Z,4.03
2023-10-24T13:01:36.521Z,5.47
2023-10-24T13:04:04.606Z,4.40
2023-10-24T13:06:34.789Z,4.28
2023-10-24T13:09:03.137Z,4.35
2023-10-24T13:11:30.788Z,5.47
2023-10-24T13:13:58.565Z,7.03
2023-10-24T13:16:26.314Z,6.28
2023-10-24T13:18:54.185Z,5.88
2023-10-24T13:21:21.782Z,10.20
2023-10-24T13:23:49.540Z,48.90
2023-10-24T13:26:17.395Z,11.10
2023-10-24T13:28:45.242Z,7.00
2023-10-24T13:31:16.285Z,7.10
2023-10-24T13:36:21.311Z,7.53
2023-10-24T13:38:52.283Z,6.22
2023-10-24T13:41:20.069Z,7.32
2023-10-24T13:43:47.891Z,7.25
2023-10-24T13:46:15.670Z,5.60
2023-10-24T13:48:43.602Z,7.00
2023-10-24T13:51:11.325Z,7.45
2023-10-24T13:53:40.947Z,8.80
2023-10-24T13:56:08.994Z,7.28
2023-10-24T13:58:36.855Z,8.30
2023-10-24T14:01:05.151Z,11.57
2023-10-24T14:03:33.594Z,7.13
2023-10-24T14:06:01.575Z,7.68
2023-10-24T14:08:29.529Z,9.75
2023-10-24T14:10:57.196Z,9.68
2023-10-24T14:13:25.066Z,7.72
2023-10-24T14:15:52.774Z,8.63
2023-10-24T14:18:20.565Z,10.57
2023-10-24T14:20:49.637Z,7.88
2023-10-24T14:23:17.903Z,8.32
2023-10-24T14:25:45.710Z,7.95
2023-10-24T14:28:13.576Z,10.05
2023-10-24T14:30:41.912Z,7.40
2023-10-24T14:33:09.869Z,9.35
2023-10-24T14:35:39.900Z,12.55
2023-10-24T14:38:07.778Z,6.25
2023-10-24T14:40:38.726Z,7.60
2023-10-24T14:43:08.406Z,6.15
2023-10-24T14:45:36.284Z,5.25
2023-10-24T14:48:04.337Z,9.50
2023-10-24T14:50:32.202Z,5.72
2023-10-24T14:53:00.262Z,8.32
2023-10-24T14:55:27.880Z,5.57
2023-10-24T14:57:56.245Z,7.25
2023-10-24T15:00:23.970Z,4.85
2023-10-24T15:02:51.804Z,6.28
2023-10-24T15:05:20.002Z,5.60
2023-10-24T15:07:47.760Z,5.97
2023-10-24T15:10:15.540Z,11.15
2023-10-24T15:12:43.259Z,7.65
2023-10-24T15:15:11.513Z,7.70
2023-10-24T15:17:39.426Z,5.07
2023-10-24T15:20:08.060Z,5.88
2023-10-24T15:22:35.665Z,5.00
2023-10-24T15:25:04.156Z,7.93
2023-10-24T15:27:33.420Z,9.05
2023-10-24T15:30:01.671Z,5.20
2023-10-24T15:32:29.608Z,6.97
2023-10-24T15:34:57.387Z,6.95
2023-10-24T15:37:25.771Z,4.78
2023-10-24T15:39:54.575Z,9.25
2023-10-24T15:42:22.458Z,9.73
2023-10-24T15:45:04.736Z,6.78
2023-10-24T15:47:41.929Z,8.63
2023-10-24T15:50:14.360Z,7.20
2023-10-24T15:52:51.535Z,7.85
2023-10-24T15:55:27.789Z,12.30
2023-10-24T15:58:02.808Z,11.55
2023-10-24T16:00:33.701Z,14.77
2023-10-24T16:03:01.430Z,11.05
2023-10-24T16:05:29.457Z,12.63
2023-10-24T16:07:57.389Z,10.48
2023-10-24T16:10:25.084Z,9.02
2023-10-24T16:12:52.830Z,14.98
2023-10-24T16:15:20.559Z,10.65
2023-10-24T16:17:48.419Z,8.40
2023-10-24T16:20:16.236Z,10.07
2023-10-24T16:22:44.113Z,11.60
2023-10-24T16:25:11.878Z,13.43
2023-10-24T16:27:39.677Z,10.43
2023-10-24T16:30:08.165Z,11.57
2023-10-24T16:32:35.979Z,10.27
2023-10-24T16:35:04.025Z,12.90
2023-10-24T16:37:31.723Z,11.98
2023-10-24T16:39:59.629Z,11.13
2023-10-24T16:42:27.918Z,12.52
2023-10-24T16:44:55.695Z,8.93
2023-10-24T16:47:23.394Z,10.68
2023-10-24T16:49:51.170Z,12.27
2023-10-24T16:52:20.046Z,11.73
2023-10-24T16:54:47.932Z,9.60
2023-10-24T16:57:15.574Z,11.40
2023-10-24T16:59:43.493Z,13.00
2023-10-24T17:02:13.595Z,12.43
2023-10-24T17:04:42.701Z,15.40
2023-10-24T17:07:10.701Z,11.00
2023-10-24T17:09:41.259Z,9.43
2023-10-24T17:12:09.540Z,13.02
2023-10-24T17:14:39.900Z,12.23
2023-10-24T17:17:08.580Z,11.18
2023-10-24T17:19:36.195Z,11.95
2023-10-24T17:22:04.303Z,9.35
2023-10-24T17:24:32.463Z,17.38
2023-10-24T17:27:00.076Z,11.45
2023-10-24T17:29:27.875Z,10.32
2023-10-24T17:31:55.659Z,12.75
2023-10-24T17:34:23.411Z,12.73
2023-10-24T17:36:51.108Z,12.57
2023-10-24T17:39:18.983Z,12.70
2023-10-24T17:41:46.811Z,10.63
2023-10-24T17:44:14.610Z,12.27
2023-10-24T17:46:42.843Z,11.93
2023-10-24T17:49:10.578Z,13.75
2023-10-24T17:51:38.210Z,14.52
2023-10-24T17:54:08.152Z,10.93
2023-10-24T17:56:36.827Z,11.95
2023-10-24T17:59:05.214Z,14.13
2023-10-24T18:01:33.024Z,16.50
2023-10-24T18:04:00.796Z,12.25
2023-10-24T18:06:28.652Z,12.40
2023-10-24T18:08:56.825Z,14.50
2023-10-24T18:11:28.000Z,12.25
2023-10-24T18:13:58.000Z,11.50
2023-10-24T18:16:25.728Z,11.05
2023-10-24T18:18:53.519Z,11.07
2023-10-24T18:21:24.529Z,12.20
2023-10-24T18:23:52.333Z,13.63
2023-10-24T18:26:20.352Z,10.15
2023-10-24T18:28:48.349Z,12.02
2023-10-24T18:31:16.236Z,10.93
2023-10-24T18:33:44.104Z,15.10
2023-10-24T18:36:16.308Z,11.73
2023-10-24T18:38:45.357Z,12.73
2023-10-24T18:41:14.678Z,11.40
2023-10-24T18:43:42.664Z,13.10
2023-10-24T18:46:12.473Z,11.68
2023-10-24T18:48:41.215Z,12.80
2023-10-24T18:51:18.129Z,12.88
2023-10-24T18:56:35.356Z,12.40
2023-10-24T18:59:07.031Z,10.23
2023-10-24T19:01:35.598Z,13.25
2023-10-24T19:04:10.447Z,10.57
2023-10-24T19:06:40.727Z,10.50
2023-10-24T19:09:08.409Z,11.90
2023-10-24T19:11:36.612Z,11.43
2023-10-24T19:14:06.136Z,11.55
2023-10-24T19:16:34.280Z,10.27
2023-10-24T19:19:02.563Z,14.38
2023-10-24T19:21:31.140Z,12.90
2023-10-24T19:23:59.009Z,9.27
2023-10-24T19:26:27.707Z,10.88
2023-10-24T19:28:55.557Z,13.25
2023-10-24T19:31:23.424Z,10.45
2023-10-24T19:33:51.450Z,12.55
2023-10-24T19:36:22.401Z,10.00
2023-10-24T19:38:50.434Z,10.77
2023-10-24T19:41:18.404Z,11.77
2023-10-24T19:43:46.490Z,9.73
2023-10-24T19:46:18.953Z,12.32
2023-10-24T19:48:47.066Z,9.18
2023-10-24T19:51:15.021Z,10.48
2023-10-24T19:53:43.107Z,9.13
2023-10-24T19:56:11.352Z,8.80
2023-10-24T19:58:44.436Z,10.27
2023-10-24T20:01:13.099Z,11.15
2023-10-24T20:03:41.571Z,8.93
2023-10-24T20:06:11.847Z,11.40
2023-10-24T20:08:42.570Z,11.75
2023-10-24T20:12:35.464Z,9.20
2023-10-24T20:13:59.257Z,9.55
2023-10-24T20:16:30.160Z,11.85
2023-10-24T20:18:58.668Z,9.93
2023-10-24T20:21:26.667Z,9.13
2023-10-24T20:23:55.210Z,10.63
2023-10-24T20:26:27.070Z,10.98
2023-10-24T20:28:55.098Z,9.98
2023-10-24T20:31:23.049Z,7.82
2023-10-24T20:33:51.133Z,9.27
2023-10-24T20:36:19.110Z,9.55
2023-10-24T20:38:46.978Z,6.88
2023-10-24T20:41:15.085Z,15.43
2023-10-24T20:43:42.952Z,13.13
2023-10-24T20:46:10.735Z,8.23
2023-10-24T20:48:38.726Z,8.98
2023-10-24T20:51:06.425Z,8.18
2023-10-24T20:53:34.539Z,8.55
2023-10-24T20:56:02.269Z,10.50
2023-10-24T20:58:30.239Z,8.65
2023-10-24T21:00:58.267Z,9.32
2023-10-24T21:03:26.204Z,8.60
2023-10-24T21:05:53.885Z,13.13
2023-10-24T21:08:21.824Z,10.90
2023-10-24T21:10:56.842Z,11.63
2023-10-24T21:13:24.778Z,10.60
2023-10-24T21:15:59.718Z,10.25
2023-10-24T21:18:28.138Z,10.75
2023-10-24T21:20:55.798Z,11.27
2023-10-24T21:23:23.713Z,14.18
2023-10-24T21:25:51.447Z,10.45
2023-10-24T21:28:20.311Z,14.13
2023-10-24T21:30:48.104Z,10.95
2023-10-24T21:33:16.056Z,10.82
2023-10-24T21:35:44.072Z,8.02
2023-10-24T21:38:11.808Z,9.15
2023-10-24T21:40:40.732Z,9.38
2023-10-24T21:43:08.567Z,7.03
2023-10-24T21:45:36.388Z,10.93
2023-10-24T21:48:04.342Z,8.07
2023-10-24T21:50:32.301Z,8.00
2023-10-24T21:53:00.078Z,7.32
2023-10-24T21:55:27.955Z,10.45
2023-10-24T21:57:55.777Z,5.65
2023-10-24T22:00:32.491Z,8.38
2023-10-24T22:03:00.842Z,6.60
2023-10-24T22:05:29.131Z,6.53
2023-10-24T22:07:57.090Z,5.25
2023-10-24T22:10:24.710Z,9.30
2023-10-24T22:12:52.435Z,5.68
2023-10-24T22:15:20.153Z,4.82
2023-10-24T22:17:49.828Z,7.70
2023-10-24T22:20:17.649Z,6.97
2023-10-24T22:22:45.725Z,7.55
2023-10-24T22:25:13.555Z,6.60
2023-10-24T22:27:45.445Z,7.07
2023-10-24T22:30:18.983Z,6.85
2023-10-24T22:32:46.701Z,6.28
2023-10-24T22:35:17.788Z,7.40
2023-10-24T22:37:46.167Z,8.82
2023-10-24T22:40:14.152Z,7.53
2023-10-24T22:42:42.084Z,9.75
2023-10-24T22:45:10.408Z,7.72
2023-10-24T22:47:38.363Z,5.88
2023-10-24T22:50:06.510Z,5.55
2023-10-24T22:52:34.317Z,5.60
2023-10-24T22:55:02.036Z,7.82
2023-10-24T22:57:29.860Z,7.97
2023-10-24T22:59:57.649Z,7.43
2023-10-24T23:02:25.523Z,9.75
2023-10-24T23:04:53.258Z,7.88
2023-10-24T23:07:21.027Z,9.20
2023-10-24T23:09:51.369Z,8.45
2023-10-24T23:12:19.426Z,6.82
2023-10-24T23:14:47.076Z,8.90
2023-10-24T23:17:14.912Z,9.48
2023-10-24T23:19:42.766Z,9.90
2023-10-24T23:22:10.681Z,10.90
2023-10-24T23:24:38.591Z,8.73
2023-10-24T23:27:06.298Z,8.15
2023-10-24T23:29:34.139Z,6.95
2023-10-24T23:32:01.892Z,8.02
2023-10-24T23:34:29.726Z,8.35
2023-10-24T23:36:57.391Z,6.78
2023-10-24T23:39:25.273Z,8.73
2023-10-24T23:41:52.957Z,8.45
2023-10-24T23:44:20.806Z,11.07
2023-10-24T23:46:48.545Z,7.18
2023-10-24T23:49:16.590Z,8.13
2023-10-24T23:51:45.142Z,9.48
2023-10-24T23:54:13.483Z,10.40
2023-10-24T23:56:41.386Z,11.85
2023-10-24T23:59:09.330Z,7.90
